sensor_id;sensor_type;location;lat;lon;timestamp;P1;durP1;ratioP1;P2;durP2;ratioP2
29916;SDS011;16786;49.466;11.068;2023-12-04T00:01:16;44.90;;;22.13;;
29916;SDS011;16786;49.466;11.068;2023-12-04T00:03:43;41.58;;;20.92;;
29916;SDS011;16786;49.466;11.068;2023-12-04T00:06:11;42.95;;;21.20;;
29916;SDS011;16786;49.466;11.068;2023-12-04T00:08:38;40.30;;;21.73;;
29916;SDS011;16786;49.466;11.068;2023-12-04T00:11:06;45.45;;;21.85;;
29916;SDS011;16786;49.466;11.068;2023-12-04T00:13:34;42.13;;;21.50;;
29916;SDS011;16786;49.466;11.068;2023-12-04T00:16:02;43.35;;;20.67;;
29916;SDS011;16786;49.466;11.068;2023-12-04T00:18:29;42.42;;;21.15;;
29916;SDS011;16786;49.466;11.068;2023-12-04T00:20:57;42.25;;;21.58;;
29916;SDS011;16786;49.466;11.068;2023-12-04T00:23:24;42.00;;;20.75;;
29916;SDS011;16786;49.466;11.068;2023-12-04T00:25:51;40.97;;;20.65;;
29916;SDS011;16786;49.466;11.068;2023-12-04T00:28:19;40.75;;;19.80;;
29916;SDS011;16786;49.466;11.068;2023-12-04T00:30:47;41.67;;;19.42;;
29916;SDS011;16786;49.466;11.068;2023-12-04T00:33:14;41.92;;;19.90;;
29916;SDS011;16786;49.466;11.068;2023-12-04T00:35:42;42.85;;;20.75;;
29916;SDS011;16786;49.466;11.068;2023-12-04T00:38:09;42.00;;;20.77;;
29916;SDS011;16786;49.466;11.068;2023-12-04T00:40:36;44.55;;;22.15;;
29916;SDS011;16786;49.466;11.068;2023-12-04T00:43:03;40.63;;;19.60;;
29916;SDS011;16786;49.466;11.068;2023-12-04T00:45:30;40.05;;;20.70;;
29916;SDS011;16786;49.466;11.068;2023-12-04T00:47:58;37.85;;;19.88;;
29916;SDS011;16786;49.466;11.068;2023-12-04T00:50:25;38.50;;;21.02;;
29916;SDS011;16786;49.466;11.068;2023-12-04T00:52:52;40.65;;;19.95;;
29916;SDS011;16786;49.466;11.068;2023-12-04T00:55:19;40.88;;;19.60;;
29916;SDS011;16786;49.466;11.068;2023-12-04T00:57:47;38.22;;;19.33;;
29916;SDS011;16786;49.466;11.068;2023-12-04T01:00:14;41.47;;;20.77;;
29916;SDS011;16786;49.466;11.068;2023-12-04T01:02:42;38.35;;;19.20;;
29916;SDS011;16786;49.466;11.068;2023-12-04T01:05:09;40.47;;;19.98;;
29916;SDS011;16786;49.466;11.068;2023-12-04T01:07:36;40.75;;;19.33;;
29916;SDS011;16786;49.466;11.068;2023-12-04T01:10:04;37.50;;;18.90;;
29916;SDS011;16786;49.466;11.068;2023-12-04T01:12:31;36.47;;;19.17;;
29916;SDS011;16786;49.466;11.068;2023-12-04T01:14:58;40.05;;;19.77;;
29916;SDS011;16786;49.466;11.068;2023-12-04T01:17:26;38.83;;;19.85;;
29916;SDS011;16786;49.466;11.068;2023-12-04T01:19:53;42.53;;;20.58;;
29916;SDS011;16786;49.466;11.068;2023-12-04T01:22:20;38.63;;;19.85;;
29916;SDS011;16786;49.466;11.068;2023-12-04T01:24:48;40.97;;;21.45;;
29916;SDS011;16786;49.466;11.068;2023-12-04T01:27:15;40.03;;;20.40;;
29916;SDS011;16786;49.466;11.068;2023-12-04T01:29:42;44.83;;;20.65;;
29916;SDS011;16786;49.466;11.068;2023-12-04T01:32:09;38.22;;;20.52;;
29916;SDS011;16786;49.466;11.068;2023-12-04T01:34:36;41.72;;;21.15;;
29916;SDS011;16786;49.466;11.068;2023-12-04T01:37:04;39.42;;;20.17;;
29916;SDS011;16786;49.466;11.068;2023-12-04T01:39:31;43.63;;;19.92;;
29916;SDS011;16786;49.466;11.068;2023-12-04T01:41:59;37.38;;;19.80;;
29916;SDS011;16786;49.466;11.068;2023-12-04T01:44:26;40.38;;;20.98;;
29916;SDS011;16786;49.466;11.068;2023-12-04T01:46:54;39.40;;;19.77;;
29916;SDS011;16786;49.466;11.068;2023-12-04T01:49:21;37.10;;;18.92;;
29916;SDS011;16786;49.466;11.068;2023-12-04T01:51:48;40.10;;;20.98;;
29916;SDS011;16786;49.466;11.068;2023-12-04T01:54:16;38.83;;;19.67;;
29916;SDS011;16786;49.466;11.068;2023-12-04T01:56:44;39.20;;;19.83;;
29916;SDS011;16786;49.466;11.068;2023-12-04T01:59:11;40.10;;;19.85;;
29916;SDS011;16786;49.466;11.068;2023-12-04T02:01:38;36.90;;;18.75;;
29916;SDS011;16786;49.466;11.068;2023-12-04T02:04:06;37.63;;;20.10;;
29916;SDS011;16786;49.466;11.068;2023-12-04T02:06:34;38.15;;;18.95;;
29916;SDS011;16786;49.466;11.068;2023-12-04T02:09:01;37.15;;;19.40;;
29916;SDS011;16786;49.466;11.068;2023-12-04T02:11:29;38.58;;;19.63;;
29916;SDS011;16786;49.466;11.068;2023-12-04T02:13:57;35.35;;;18.40;;
29916;SDS011;16786;49.466;11.068;2023-12-04T02:16:24;37.80;;;19.88;;
29916;SDS011;16786;49.466;11.068;2023-12-04T02:18:54;41.38;;;20.35;;
29916;SDS011;16786;49.466;11.068;2023-12-04T02:21:21;38.20;;;19.20;;
29916;SDS011;16786;49.466;11.068;2023-12-04T02:23:52;38.45;;;19.15;;
29916;SDS011;16786;49.466;11.068;2023-12-04T02:26:22;40.63;;;19.98;;
29916;SDS011;16786;49.466;11.068;2023-12-04T02:28:55;40.35;;;18.77;;
29916;SDS011;16786;49.466;11.068;2023-12-04T02:31:27;37.88;;;19.13;;
29916;SDS011;16786;49.466;11.068;2023-12-04T02:33:57;39.63;;;19.25;;
29916;SDS011;16786;49.466;11.068;2023-12-04T02:36:27;39.10;;;18.80;;
29916;SDS011;16786;49.466;11.068;2023-12-04T02:38:56;37.85;;;19.83;;
29916;SDS011;16786;49.466;11.068;2023-12-04T02:41:24;38.45;;;19.25;;
29916;SDS011;16786;49.466;11.068;2023-12-04T02:43:51;35.40;;;18.88;;
29916;SDS011;16786;49.466;11.068;2023-12-04T02:46:18;42.70;;;19.85;;
29916;SDS011;16786;49.466;11.068;2023-12-04T02:48:46;38.90;;;19.80;;
29916;SDS011;16786;49.466;11.068;2023-12-04T02:51:13;37.70;;;19.05;;
29916;SDS011;16786;49.466;11.068;2023-12-04T02:53:40;41.05;;;20.05;;
29916;SDS011;16786;49.466;11.068;2023-12-04T02:56:07;39.15;;;19.67;;
29916;SDS011;16786;49.466;11.068;2023-12-04T02:58:35;40.03;;;18.55;;
29916;SDS011;16786;49.466;11.068;2023-12-04T03:01:02;37.58;;;19.50;;
29916;SDS011;16786;49.466;11.068;2023-12-04T03:03:29;42.08;;;19.65;;
29916;SDS011;16786;49.466;11.068;2023-12-04T03:05:56;36.20;;;18.90;;
29916;SDS011;16786;49.466;11.068;2023-12-04T03:08:23;36.95;;;18.38;;
29916;SDS011;16786;49.466;11.068;2023-12-04T03:10:50;37.45;;;19.85;;
29916;SDS011;16786;49.466;11.068;2023-12-04T03:13:18;36.50;;;18.75;;
29916;SDS011;16786;49.466;11.068;2023-12-04T03:15:45;36.83;;;19.35;;
29916;SDS011;16786;49.466;11.068;2023-12-04T03:18:12;39.10;;;20.25;;
29916;SDS011;16786;49.466;11.068;2023-12-04T03:20:39;40.60;;;20.20;;
29916;SDS011;16786;49.466;11.068;2023-12-04T03:23:06;36.05;;;18.13;;
29916;SDS011;16786;49.466;11.068;2023-12-04T03:25:33;40.72;;;19.63;;
29916;SDS011;16786;49.466;11.068;2023-12-04T03:28:00;38.20;;;19.70;;
29916;SDS011;16786;49.466;11.068;2023-12-04T03:30:28;35.00;;;18.10;;
29916;SDS011;16786;49.466;11.068;2023-12-04T03:32:55;39.83;;;19.83;;
29916;SDS011;16786;49.466;11.068;2023-12-04T03:35:22;36.40;;;19.20;;
29916;SDS011;16786;49.466;11.068;2023-12-04T03:37:49;36.03;;;18.23;;
29916;SDS011;16786;49.466;11.068;2023-12-04T03:40:16;38.17;;;19.00;;
29916;SDS011;16786;49.466;11.068;2023-12-04T03:42:43;37.40;;;18.98;;
29916;SDS011;16786;49.466;11.068;2023-12-04T03:45:11;38.00;;;19.35;;
29916;SDS011;16786;49.466;11.068;2023-12-04T03:47:38;40.05;;;19.38;;
29916;SDS011;16786;49.466;11.068;2023-12-04T03:50:05;35.55;;;18.63;;
29916;SDS011;16786;49.466;11.068;2023-12-04T03:52:32;38.13;;;18.88;;
29916;SDS011;16786;49.466;11.068;2023-12-04T03:54:59;37.17;;;18.65;;
29916;SDS011;16786;49.466;11.068;2023-12-04T03:57:27;37.10;;;18.63;;
29916;SDS011;16786;49.466;11.068;2023-12-04T03:59:54;35.47;;;18.10;;
29916;SDS011;16786;49.466;11.068;2023-12-04T04:02:21;34.70;;;18.35;;
29916;SDS011;16786;49.466;11.068;2023-12-04T04:04:49;36.83;;;18.75;;
29916;SDS011;16786;49.466;11.068;2023-12-04T04:07:17;38.15;;;19.35;;
29916;SDS011;16786;49.466;11.068;2023-12-04T04:09:44;36.88;;;18.75;;
29916;SDS011;16786;49.466;11.068;2023-12-04T04:12:11;38.38;;;19.20;;
29916;SDS011;16786;49.466;11.068;2023-12-04T04:14:38;41.10;;;19.25;;
29916;SDS011;16786;49.466;11.068;2023-12-04T04:17:06;37.35;;;20.10;;
29916;SDS011;16786;49.466;11.068;2023-12-04T04:19:33;37.20;;;18.63;;
29916;SDS011;16786;49.466;11.068;2023-12-04T04:22:00;37.40;;;19.17;;
29916;SDS011;16786;49.466;11.068;2023-12-04T04:24:27;34.28;;;19.10;;
29916;SDS011;16786;49.466;11.068;2023-12-04T04:26:55;36.63;;;18.35;;
29916;SDS011;16786;49.466;11.068;2023-12-04T04:29:23;33.65;;;17.27;;
29916;SDS011;16786;49.466;11.068;2023-12-04T04:31:50;37.33;;;18.52;;
29916;SDS011;16786;49.466;11.068;2023-12-04T04:34:17;31.55;;;17.33;;
29916;SDS011;16786;49.466;11.068;2023-12-04T04:36:44;32.78;;;17.10;;
29916;SDS011;16786;49.466;11.068;2023-12-04T04:39:12;37.28;;;18.00;;
29916;SDS011;16786;49.466;11.068;2023-12-04T04:41:40;33.15;;;17.02;;
29916;SDS011;16786;49.466;11.068;2023-12-04T04:44:07;34.20;;;17.05;;
29916;SDS011;16786;49.466;11.068;2023-12-04T04:46:34;35.65;;;18.10;;
29916;SDS011;16786;49.466;11.068;2023-12-04T04:49:01;31.30;;;16.45;;
29916;SDS011;16786;49.466;11.068;2023-12-04T04:51:33;34.40;;;17.23;;
29916;SDS011;16786;49.466;11.068;2023-12-04T04:54:01;34.92;;;17.23;;
29916;SDS011;16786;49.466;11.068;2023-12-04T04:56:29;32.97;;;17.25;;
29916;SDS011;16786;49.466;11.068;2023-12-04T04:58:56;36.35;;;18.48;;
29916;SDS011;16786;49.466;11.068;2023-12-04T05:01:24;30.52;;;16.73;;
29916;SDS011;16786;49.466;11.068;2023-12-04T05:03:51;33.20;;;17.05;;
29916;SDS011;16786;49.466;11.068;2023-12-04T05:06:18;34.40;;;17.17;;
29916;SDS011;16786;49.466;11.068;2023-12-04T05:08:45;32.08;;;16.85;;
29916;SDS011;16786;49.466;11.068;2023-12-04T05:11:14;30.85;;;17.13;;
29916;SDS011;16786;49.466;11.068;2023-12-04T05:13:42;30.65;;;16.42;;
29916;SDS011;16786;49.466;11.068;2023-12-04T05:16:09;32.17;;;17.33;;
29916;SDS011;16786;49.466;11.068;2023-12-04T05:18:38;29.08;;;15.88;;
29916;SDS011;16786;49.466;11.068;2023-12-04T05:21:08;30.63;;;16.50;;
29916;SDS011;16786;49.466;11.068;2023-12-04T05:23:37;31.63;;;16.35;;
29916;SDS011;16786;49.466;11.068;2023-12-04T05:26:05;31.48;;;16.25;;
29916;SDS011;16786;49.466;11.068;2023-12-04T05:28:33;32.90;;;16.88;;
29916;SDS011;16786;49.466;11.068;2023-12-04T05:31:01;33.20;;;17.02;;
29916;SDS011;16786;49.466;11.068;2023-12-04T05:33:28;31.00;;;17.15;;
29916;SDS011;16786;49.466;11.068;2023-12-04T05:35:55;29.08;;;15.77;;
29916;SDS011;16786;49.466;11.068;2023-12-04T05:38:23;31.50;;;15.90;;
29916;SDS011;16786;49.466;11.068;2023-12-04T05:40:50;28.20;;;16.17;;
29916;SDS011;16786;49.466;11.068;2023-12-04T05:43:17;32.28;;;17.20;;
29916;SDS011;16786;49.466;11.068;2023-12-04T05:45:45;31.42;;;15.80;;
29916;SDS011;16786;49.466;11.068;2023-12-04T05:48:15;31.40;;;16.40;;
29916;SDS011;16786;49.466;11.068;2023-12-04T05:50:42;29.20;;;16.00;;
29916;SDS011;16786;49.466;11.068;2023-12-04T05:53:09;32.20;;;16.90;;
29916;SDS011;16786;49.466;11.068;2023-12-04T05:55:36;30.27;;;15.85;;
29916;SDS011;16786;49.466;11.068;2023-12-04T05:58:03;30.88;;;16.23;;
29916;SDS011;16786;49.466;11.068;2023-12-04T06:00:30;29.02;;;15.90;;
29916;SDS011;16786;49.466;11.068;2023-12-04T06:02:57;32.85;;;16.73;;
29916;SDS011;16786;49.466;11.068;2023-12-04T06:05:25;31.67;;;16.52;;
29916;SDS011;16786;49.466;11.068;2023-12-04T06:07:52;31.20;;;16.85;;
29916;SDS011;16786;49.466;11.068;2023-12-04T06:10:19;31.15;;;15.85;;
29916;SDS011;16786;49.466;11.068;2023-12-04T06:12:46;28.73;;;16.15;;
29916;SDS011;16786;49.466;11.068;2023-12-04T06:15:13;32.72;;;16.85;;
29916;SDS011;16786;49.466;11.068;2023-12-04T06:17:41;32.42;;;16.20;;
29916;SDS011;16786;49.466;11.068;2023-12-04T06:20:08;29.98;;;15.68;;
29916;SDS011;16786;49.466;11.068;2023-12-04T06:22:38;30.83;;;15.95;;
29916;SDS011;16786;49.466;11.068;2023-12-04T06:25:05;29.90;;;16.05;;
29916;SDS011;16786;49.466;11.068;2023-12-04T06:27:33;31.77;;;15.68;;
29916;SDS011;16786;49.466;11.068;2023-12-04T06:30:01;28.05;;;14.43;;
29916;SDS011;16786;49.466;11.068;2023-12-04T06:32:29;29.40;;;15.25;;
29916;SDS011;16786;49.466;11.068;2023-12-04T06:34:56;29.70;;;15.73;;
29916;SDS011;16786;49.466;11.068;2023-12-04T06:37:24;30.48;;;15.30;;
29916;SDS011;16786;49.466;11.068;2023-12-04T06:39:52;28.55;;;16.48;;
29916;SDS011;16786;49.466;11.068;2023-12-04T06:42:20;28.88;;;15.68;;
29916;SDS011;16786;49.466;11.068;2023-12-04T06:44:47;28.38;;;15.48;;
29916;SDS011;16786;49.466;11.068;2023-12-04T06:47:14;29.02;;;15.73;;
29916;SDS011;16786;49.466;11.068;2023-12-04T06:49:45;31.20;;;16.13;;
29916;SDS011;16786;49.466;11.068;2023-12-04T06:52:12;27.40;;;16.08;;
29916;SDS011;16786;49.466;11.068;2023-12-04T06:54:39;30.60;;;15.38;;
29916;SDS011;16786;49.466;11.068;2023-12-04T06:57:06;31.35;;;15.70;;
29916;SDS011;16786;49.466;11.068;2023-12-04T06:59:34;28.35;;;15.38;;
29916;SDS011;16786;49.466;11.068;2023-12-04T07:02:01;30.90;;;16.10;;
29916;SDS011;16786;49.466;11.068;2023-12-04T07:04:31;30.95;;;15.50;;
29916;SDS011;16786;49.466;11.068;2023-12-04T07:06:58;30.25;;;15.90;;
29916;SDS011;16786;49.466;11.068;2023-12-04T07:09:31;32.85;;;16.48;;
29916;SDS011;16786;49.466;11.068;2023-12-04T07:12:02;30.50;;;15.73;;
29916;SDS011;16786;49.466;11.068;2023-12-04T07:14:31;32.50;;;17.33;;
29916;SDS011;16786;49.466;11.068;2023-12-04T07:16:58;33.00;;;16.95;;
29916;SDS011;16786;49.466;11.068;2023-12-04T07:19:25;29.90;;;16.65;;
29916;SDS011;16786;49.466;11.068;2023-12-04T07:21:54;32.20;;;16.55;;
29916;SDS011;16786;49.466;11.068;2023-12-04T07:24:22;32.50;;;17.20;;
29916;SDS011;16786;49.466;11.068;2023-12-04T07:26:50;30.65;;;17.25;;
29916;SDS011;16786;49.466;11.068;2023-12-04T07:29:17;30.92;;;16.00;;
29916;SDS011;16786;49.466;11.068;2023-12-04T07:31:44;30.58;;;16.65;;
29916;SDS011;16786;49.466;11.068;2023-12-04T07:34:11;30.83;;;16.23;;
29916;SDS011;16786;49.466;11.068;2023-12-04T07:36:39;29.45;;;15.40;;
29916;SDS011;16786;49.466;11.068;2023-12-04T07:39:07;29.35;;;16.30;;
29916;SDS011;16786;49.466;11.068;2023-12-04T07:41:34;29.17;;;15.25;;
29916;SDS011;16786;49.466;11.068;2023-12-04T07:44:01;32.97;;;17.75;;
29916;SDS011;16786;49.466;11.068;2023-12-04T07:46:28;29.27;;;16.48;;
29916;SDS011;16786;49.466;11.068;2023-12-04T07:48:55;28.55;;;15.07;;
29916;SDS011;16786;49.466;11.068;2023-12-04T07:51:22;27.85;;;15.57;;
29916;SDS011;16786;49.466;11.068;2023-12-04T07:53:49;29.52;;;15.32;;
29916;SDS011;16786;49.466;11.068;2023-12-04T07:56:16;28.70;;;14.90;;
29916;SDS011;16786;49.466;11.068;2023-12-04T07:58:44;32.47;;;16.75;;
29916;SDS011;16786;49.466;11.068;2023-12-04T08:01:11;24.67;;;14.30;;
29916;SDS011;16786;49.466;11.068;2023-12-04T08:03:38;24.67;;;13.90;;
29916;SDS011;16786;49.466;11.068;2023-12-04T08:06:05;23.33;;;13.32;;
29916;SDS011;16786;49.466;11.068;2023-12-04T08:08:33;25.70;;;14.23;;
29916;SDS011;16786;49.466;11.068;2023-12-04T08:11:01;24.35;;;13.52;;
29916;SDS011;16786;49.466;11.068;2023-12-04T08:13:28;27.52;;;14.95;;
29916;SDS011;16786;49.466;11.068;2023-12-04T08:15:55;24.33;;;13.88;;
29916;SDS011;16786;49.466;11.068;2023-12-04T08:18:23;26.80;;;15.05;;
29916;SDS011;16786;49.466;11.068;2023-12-04T08:20:52;24.92;;;14.15;;
29916;SDS011;16786;49.466;11.068;2023-12-04T08:23:19;24.10;;;13.30;;
29916;SDS011;16786;49.466;11.068;2023-12-04T08:25:46;26.75;;;14.60;;
29916;SDS011;16786;49.466;11.068;2023-12-04T08:28:15;25.10;;;14.32;;
29916;SDS011;16786;49.466;11.068;2023-12-04T08:30:42;25.65;;;13.57;;
29916;SDS011;16786;49.466;11.068;2023-12-04T08:33:10;25.45;;;13.07;;
29916;SDS011;16786;49.466;11.068;2023-12-04T08:35:37;22.38;;;13.23;;
29916;SDS011;16786;49.466;11.068;2023-12-04T08:38:04;21.40;;;12.30;;
29916;SDS011;16786;49.466;11.068;2023-12-04T08:40:31;23.40;;;13.38;;
29916;SDS011;16786;49.466;11.068;2023-12-04T08:42:58;21.80;;;12.18;;
29916;SDS011;16786;49.466;11.068;2023-12-04T08:45:25;21.23;;;12.57;;
29916;SDS011;16786;49.466;11.068;2023-12-04T08:47:53;19.35;;;11.98;;
29916;SDS011;16786;49.466;11.068;2023-12-04T08:50:20;19.10;;;12.43;;
29916;SDS011;16786;49.466;11.068;2023-12-04T08:52:47;22.33;;;12.82;;
29916;SDS011;16786;49.466;11.068;2023-12-04T08:55:15;23.08;;;13.40;;
29916;SDS011;16786;49.466;11.068;2023-12-04T08:57:42;22.73;;;12.77;;
29916;SDS011;16786;49.466;11.068;2023-12-04T09:00:10;20.75;;;12.50;;
29916;SDS011;16786;49.466;11.068;2023-12-04T09:02:37;23.80;;;13.50;;
29916;SDS011;16786;49.466;11.068;2023-12-04T09:05:15;21.23;;;12.52;;
29916;SDS011;16786;49.466;11.068;2023-12-04T09:07:42;18.50;;;11.15;;
29916;SDS011;16786;49.466;11.068;2023-12-04T09:10:13;22.17;;;12.50;;
29916;SDS011;16786;49.466;11.068;2023-12-04T09:12:56;18.45;;;11.75;;
29916;SDS011;16786;49.466;11.068;2023-12-04T09:15:23;18.02;;;11.35;;
29916;SDS011;16786;49.466;11.068;2023-12-04T09:17:51;15.85;;;10.85;;
29916;SDS011;16786;49.466;11.068;2023-12-04T09:20:18;17.42;;;10.75;;
29916;SDS011;16786;49.466;11.068;2023-12-04T09:22:46;19.05;;;10.40;;
29916;SDS011;16786;49.466;11.068;2023-12-04T09:25:18;16.38;;;10.32;;
29916;SDS011;16786;49.466;11.068;2023-12-04T09:27:47;16.38;;;10.70;;
29916;SDS011;16786;49.466;11.068;2023-12-04T09:30:14;16.95;;;10.68;;
29916;SDS011;16786;49.466;11.068;2023-12-04T09:32:41;15.52;;;10.20;;
29916;SDS011;16786;49.466;11.068;2023-12-04T09:35:10;14.77;;;9.18;;
29916;SDS011;16786;49.466;11.068;2023-12-04T09:37:37;15.93;;;10.27;;
29916;SDS011;16786;49.466;11.068;2023-12-04T09:40:05;16.13;;;10.25;;
29916;SDS011;16786;49.466;11.068;2023-12-04T09:42:33;15.80;;;10.02;;
29916;SDS011;16786;49.466;11.068;2023-12-04T09:45:01;16.77;;;9.65;;
29916;SDS011;16786;49.466;11.068;2023-12-04T09:47:29;17.13;;;10.60;;
29916;SDS011;16786;49.466;11.068;2023-12-04T09:49:58;16.33;;;9.80;;
29916;SDS011;16786;49.466;11.068;2023-12-04T09:52:27;14.23;;;9.65;;
29916;SDS011;16786;49.466;11.068;2023-12-04T09:54:55;12.75;;;9.10;;
29916;SDS011;16786;49.466;11.068;2023-12-04T09:57:23;14.48;;;9.57;;
29916;SDS011;16786;49.466;11.068;2023-12-04T09:59:52;14.57;;;9.63;;
29916;SDS011;16786;49.466;11.068;2023-12-04T10:02:19;11.77;;;9.23;;
29916;SDS011;16786;49.466;11.068;2023-12-04T10:04:48;12.60;;;8.18;;
29916;SDS011;16786;49.466;11.068;2023-12-04T10:07:15;13.82;;;8.30;;
29916;SDS011;16786;49.466;11.068;2023-12-04T10:09:43;15.32;;;8.95;;
29916;SDS011;16786;49.466;11.068;2023-12-04T10:12:10;14.73;;;8.60;;
29916;SDS011;16786;49.466;11.068;2023-12-04T10:14:38;13.27;;;8.93;;
29916;SDS011;16786;49.466;11.068;2023-12-04T10:17:14;16.02;;;9.60;;
29916;SDS011;16786;49.466;11.068;2023-12-04T10:19:44;36.38;;;20.00;;
29916;SDS011;16786;49.466;11.068;2023-12-04T10:22:12;14.00;;;9.23;;
29916;SDS011;16786;49.466;11.068;2023-12-04T10:24:41;14.75;;;8.85;;
29916;SDS011;16786;49.466;11.068;2023-12-04T10:27:08;13.27;;;8.80;;
29916;SDS011;16786;49.466;11.068;2023-12-04T10:29:43;12.43;;;8.43;;
29916;SDS011;16786;49.466;11.068;2023-12-04T10:32:18;13.68;;;9.10;;
29916;SDS011;16786;49.466;11.068;2023-12-04T10:34:48;12.52;;;8.38;;
29916;SDS011;16786;49.466;11.068;2023-12-04T10:37:16;12.77;;;8.85;;
29916;SDS011;16786;49.466;11.068;2023-12-04T10:39:50;12.23;;;8.52;;
29916;SDS011;16786;49.466;11.068;2023-12-04T10:42:25;12.43;;;8.13;;
29916;SDS011;16786;49.466;11.068;2023-12-04T10:44:55;12.00;;;8.30;;
29916;SDS011;16786;49.466;11.068;2023-12-04T10:47:24;10.52;;;7.93;;
29916;SDS011;16786;49.466;11.068;2023-12-04T10:49:53;12.35;;;8.00;;
29916;SDS011;16786;49.466;11.068;2023-12-04T10:52:21;12.73;;;8.68;;
29916;SDS011;16786;49.466;11.068;2023-12-04T10:54:49;11.57;;;8.50;;
29916;SDS011;16786;49.466;11.068;2023-12-04T10:57:21;12.27;;;8.02;;
29916;SDS011;16786;49.466;11.068;2023-12-04T11:00:00;12.63;;;8.60;;
29916;SDS011;16786;49.466;11.068;2023-12-04T11:02:33;11.95;;;8.00;;
29916;SDS011;16786;49.466;11.068;2023-12-04T11:05:05;11.43;;;8.77;;
29916;SDS011;16786;49.466;11.068;2023-12-04T11:07:41;12.70;;;9.02;;
29916;SDS011;16786;49.466;11.068;2023-12-04T11:10:44;13.82;;;9.82;;
29916;SDS011;16786;49.466;11.068;2023-12-04T11:13:22;13.52;;;8.73;;
29916;SDS011;16786;49.466;11.068;2023-12-04T11:15:55;12.32;;;8.45;;
29916;SDS011;16786;49.466;11.068;2023-12-04T11:18:27;14.38;;;8.25;;
29916;SDS011;16786;49.466;11.068;2023-12-04T11:21:04;11.00;;;7.75;;
29916;SDS011;16786;49.466;11.068;2023-12-04T11:23:35;12.00;;;7.82;;
29916;SDS011;16786;49.466;11.068;2023-12-04T11:26:03;13.43;;;7.63;;
29916;SDS011;16786;49.466;11.068;2023-12-04T11:28:32;10.65;;;7.72;;
29916;SDS011;16786;49.466;11.068;2023-12-04T11:31:01;12.43;;;7.90;;
29916;SDS011;16786;49.466;11.068;2023-12-04T11:33:32;11.52;;;7.70;;
29916;SDS011;16786;49.466;11.068;2023-12-04T11:36:05;12.35;;;8.20;;
29916;SDS011;16786;49.466;11.068;2023-12-04T11:38:43;11.23;;;7.88;;
29916;SDS011;16786;49.466;11.068;2023-12-04T11:43:50;11.65;;;7.90;;
29916;SDS011;16786;49.466;11.068;2023-12-04T11:46:19;12.27;;;7.82;;
29916;SDS011;16786;49.466;11.068;2023-12-04T11:48:51;11.85;;;8.07;;
29916;SDS011;16786;49.466;11.068;2023-12-04T11:54:07;13.70;;;9.02;;
29916;SDS011;16786;49.466;11.068;2023-12-04T11:56:35;15.80;;;8.65;;
29916;SDS011;16786;49.466;11.068;2023-12-04T11:59:03;13.15;;;7.53;;
29916;SDS011;16786;49.466;11.068;2023-12-04T12:01:36;13.43;;;7.45;;
29916;SDS011;16786;49.466;11.068;2023-12-04T12:04:07;15.55;;;9.30;;
29916;SDS011;16786;49.466;11.068;2023-12-04T12:06:34;48.08;;;21.92;;
29916;SDS011;16786;49.466;11.068;2023-12-04T12:09:01;16.25;;;9.48;;
29916;SDS011;16786;49.466;11.068;2023-12-04T12:11:30;14.60;;;8.77;;
29916;SDS011;16786;49.466;11.068;2023-12-04T12:13:57;13.45;;;7.90;;
29916;SDS011;16786;49.466;11.068;2023-12-04T12:16:27;13.45;;;8.48;;
29916;SDS011;16786;49.466;11.068;2023-12-04T12:18:54;15.80;;;8.82;;
29916;SDS011;16786;49.466;11.068;2023-12-04T12:21:22;14.40;;;9.77;;
29916;SDS011;16786;49.466;11.068;2023-12-04T12:23:49;19.73;;;8.52;;
29916;SDS011;16786;49.466;11.068;2023-12-04T12:26:16;13.82;;;8.20;;
29916;SDS011;16786;49.466;11.068;2023-12-04T12:28:43;12.60;;;8.45;;
29916;SDS011;16786;49.466;11.068;2023-12-04T12:31:12;17.65;;;8.68;;
29916;SDS011;16786;49.466;11.068;2023-12-04T12:33:39;14.90;;;8.07;;
29916;SDS011;16786;49.466;11.068;2023-12-04T12:36:06;11.82;;;7.80;;
29916;SDS011;16786;49.466;11.068;2023-12-04T12:38:35;14.20;;;8.18;;
29916;SDS011;16786;49.466;11.068;2023-12-04T12:41:07;10.38;;;7.32;;
29916;SDS011;16786;49.466;11.068;2023-12-04T12:43:38;19.52;;;11.80;;
29916;SDS011;16786;49.466;11.068;2023-12-04T12:46:05;11.07;;;7.82;;
29916;SDS011;16786;49.466;11.068;2023-12-04T12:48:33;13.23;;;8.75;;
29916;SDS011;16786;49.466;11.068;2023-12-04T12:51:05;15.27;;;8.65;;
29916;SDS011;16786;49.466;11.068;2023-12-04T12:53:33;15.15;;;8.82;;
29916;SDS011;16786;49.466;11.068;2023-12-04T12:56:01;17.70;;;10.50;;
29916;SDS011;16786;49.466;11.068;2023-12-04T12:58:29;14.68;;;8.98;;
29916;SDS011;16786;49.466;11.068;2023-12-04T13:00:56;13.68;;;8.65;;
29916;SDS011;16786;49.466;11.068;2023-12-04T13:03:23;16.02;;;8.85;;
29916;SDS011;16786;49.466;11.068;2023-12-04T13:05:51;12.43;;;8.65;;
29916;SDS011;16786;49.466;11.068;2023-12-04T13:08:19;15.00;;;8.90;;
29916;SDS011;16786;49.466;11.068;2023-12-04T13:10:46;13.35;;;8.18;;
29916;SDS011;16786;49.466;11.068;2023-12-04T13:13:14;12.70;;;8.15;;
29916;SDS011;16786;49.466;11.068;2023-12-04T13:15:41;12.93;;;8.63;;
29916;SDS011;16786;49.466;11.068;2023-12-04T13:18:09;13.25;;;9.00;;
29916;SDS011;16786;49.466;11.068;2023-12-04T13:20:37;17.27;;;8.63;;
29916;SDS011;16786;49.466;11.068;2023-12-04T13:23:04;14.98;;;8.73;;
29916;SDS011;16786;49.466;11.068;2023-12-04T13:25:32;14.27;;;8.82;;
29916;SDS011;16786;49.466;11.068;2023-12-04T13:28:00;15.30;;;9.30;;
29916;SDS011;16786;49.466;11.068;2023-12-04T13:30:27;12.50;;;8.57;;
29916;SDS011;16786;49.466;11.068;2023-12-04T13:32:55;13.85;;;8.38;;
29916;SDS011;16786;49.466;11.068;2023-12-04T13:35:22;15.52;;;10.48;;
29916;SDS011;16786;49.466;11.068;2023-12-04T13:37:49;15.68;;;9.68;;
29916;SDS011;16786;49.466;11.068;2023-12-04T13:40:21;12.60;;;8.60;;
29916;SDS011;16786;49.466;11.068;2023-12-04T13:42:53;14.05;;;9.00;;
29916;SDS011;16786;49.466;11.068;2023-12-04T13:45:39;13.52;;;8.77;;
29916;SDS011;16786;49.466;11.068;2023-12-04T13:48:06;15.23;;;8.68;;
29916;SDS011;16786;49.466;11.068;2023-12-04T13:50:34;14.55;;;8.75;;
29916;SDS011;16786;49.466;11.068;2023-12-04T13:53:01;15.32;;;9.02;;
29916;SDS011;16786;49.466;11.068;2023-12-04T13:55:29;14.70;;;8.98;;
29916;SDS011;16786;49.466;11.068;2023-12-04T13:58:34;19.33;;;10.52;;
29916;SDS011;16786;49.466;11.068;2023-12-04T14:01:10;16.77;;;9.50;;
29916;SDS011;16786;49.466;11.068;2023-12-04T14:03:41;14.40;;;8.88;;
29916;SDS011;16786;49.466;11.068;2023-12-04T14:06:10;13.07;;;8.07;;
29916;SDS011;16786;49.466;11.068;2023-12-04T14:08:39;12.93;;;7.97;;
29916;SDS011;16786;49.466;11.068;2023-12-04T14:11:07;13.55;;;8.48;;
29916;SDS011;16786;49.466;11.068;2023-12-04T14:13:36;12.93;;;8.40;;
29916;SDS011;16786;49.466;11.068;2023-12-04T14:16:04;12.27;;;8.25;;
29916;SDS011;16786;49.466;11.068;2023-12-04T14:18:32;13.32;;;7.68;;
29916;SDS011;16786;49.466;11.068;2023-12-04T14:21:00;11.25;;;7.47;;
29916;SDS011;16786;49.466;11.068;2023-12-04T14:23:28;16.25;;;8.68;;
29916;SDS011;16786;49.466;11.068;2023-12-04T14:25:55;10.85;;;7.60;;